sensor_id;sensor_type;location;lat;lon;timestamp;pressure;altitude;pressure_sealevel;temperature
11926;BMP180;6022;48.768;18.608;2022-12-18T00:01:28;99744.81;;;-5.04
11926;BMP180;6022;48.768;18.608;2022-12-18T00:03:56;99749.88;;;-4.98
11926;BMP180;6022;48.768;18.608;2022-12-18T00:06:26;99750.84;;;-4.92
11926;BMP180;6022;48.768;18.608;2022-12-18T00:08:56;99753.31;;;-4.92
11926;BMP180;6022;48.768;18.608;2022-12-18T00:11:28;99755.69;;;-4.96
11926;BMP180;6022;48.768;18.608;2022-12-18T00:14:00;99757.25;;;-5.00
11926;BMP180;6022;48.768;18.608;2022-12-18T00:16:29;99758.19;;;-4.95
11926;BMP180;6022;48.768;18.608;2022-12-18T00:18:59;99762.28;;;-4.97
11926;BMP180;6022;48.768;18.608;2022-12-18T00:21:28;99763.81;;;-5.02
11926;BMP180;6022;48.768;18.608;2022-12-18T00:23:56;99769.53;;;-5.06
11926;BMP180;6022;48.768;18.608;2022-12-18T00:26:27;99773.59;;;-5.08
11926;BMP180;6022;48.768;18.608;2022-12-18T00:28:58;99770.38;;;-5.05
11926;BMP180;6022;48.768;18.608;2022-12-18T00:31:26;99783.59;;;-5.02
11926;BMP180;6022;48.768;18.608;2022-12-18T00:33:55;99782.78;;;-5.02
11926;BMP180;6022;48.768;18.608;2022-12-18T00:36:27;99780.56;;;-4.89
11926;BMP180;6022;48.768;18.608;2022-12-18T00:38:57;99779.63;;;-4.95
11926;BMP180;6022;48.768;18.608;2022-12-18T00:41:25;99790.06;;;-5.10
11926;BMP180;6022;48.768;18.608;2022-12-18T00:44:15;99793.09;;;-5.23
11926;BMP180;6022;48.768;18.608;2022-12-18T00:46:44;99797.91;;;-5.28
11926;BMP180;6022;48.768;18.608;2022-12-18T00:49:11;99795.91;;;-5.46
11926;BMP180;6022;48.768;18.608;2022-12-18T00:51:38;99806.41;;;-5.56
11926;BMP180;6022;48.768;18.608;2022-12-18T00:54:05;99804.81;;;-5.52
11926;BMP180;6022;48.768;18.608;2022-12-18T00:56:32;99811.38;;;-5.56
11926;BMP180;6022;48.768;18.608;2022-12-18T00:58:59;99809.69;;;-5.57
11926;BMP180;6022;48.768;18.608;2022-12-18T01:01:26;99812.94;;;-5.59
11926;BMP180;6022;48.768;18.608;2022-12-18T01:03:54;99812.13;;;-5.58
11926;BMP180;6022;48.768;18.608;2022-12-18T01:06:21;99812.19;;;-5.55
11926;BMP180;6022;48.768;18.608;2022-12-18T01:08:48;99819.66;;;-5.52
11926;BMP180;6022;48.768;18.608;2022-12-18T01:11:19;99819.16;;;-5.38
11926;BMP180;6022;48.768;18.608;2022-12-18T01:13:47;99835.69;;;-5.35
11926;BMP180;6022;48.768;18.608;2022-12-18T01:16:16;99832.91;;;-5.50
11926;BMP180;6022;48.768;18.608;2022-12-18T01:18:44;99834.47;;;-5.52
11926;BMP180;6022;48.768;18.608;2022-12-18T01:21:16;99822.06;;;-5.55
11926;BMP180;6022;48.768;18.608;2022-12-18T01:23:45;99819.69;;;-5.51
11926;BMP180;6022;48.768;18.608;2022-12-18T01:26:15;99818.88;;;-5.51
11926;BMP180;6022;48.768;18.608;2022-12-18T01:28:43;99822.00;;;-5.58
11926;BMP180;6022;48.768;18.608;2022-12-18T01:31:23;99818.75;;;-5.57
11926;BMP180;6022;48.768;18.608;2022-12-18T01:33:52;99825.94;;;-5.66
11926;BMP180;6022;48.768;18.608;2022-12-18T01:36:30;99833.81;;;-5.83
11926;BMP180;6022;48.768;18.608;2022-12-18T01:39:01;99828.06;;;-5.84
11926;BMP180;6022;48.768;18.608;2022-12-18T01:41:30;99834.66;;;-5.83
11926;BMP180;6022;48.768;18.608;2022-12-18T01:47:47;99840.31;;;-5.87
11926;BMP180;6022;48.768;18.608;2022-12-18T01:50:15;99838.69;;;-5.86
11926;BMP180;6022;48.768;18.608;2022-12-18T01:52:48;99841.28;;;-5.82
11926;BMP180;6022;48.768;18.608;2022-12-18T01:55:20;99851.84;;;-5.87
11926;BMP180;6022;48.768;18.608;2022-12-18T01:57:52;99856.75;;;-5.89
11926;BMP180;6022;48.768;18.608;2022-12-18T02:00:22;99858.41;;;-5.88
11926;BMP180;6022;48.768;18.608;2022-12-18T02:02:49;99855.94;;;-5.88
11926;BMP180;6022;48.768;18.608;2022-12-18T02:05:27;99862.47;;;-5.90
11926;BMP180;6022;48.768;18.608;2022-12-18T02:11:00;99875.78;;;-5.85
11926;BMP180;6022;48.768;18.608;2022-12-18T02:17:11;99882.41;;;-5.82
11926;BMP180;6022;48.768;18.608;2022-12-18T02:25:51;99867.53;;;-5.85
11926;BMP180;6022;48.768;18.608;2022-12-18T02:28:23;99870.88;;;-5.83
11926;BMP180;6022;48.768;18.608;2022-12-18T02:30:56;99889.91;;;-5.79
11926;BMP180;6022;48.768;18.608;2022-12-18T02:33:28;99893.00;;;-5.88
11926;BMP180;6022;48.768;18.608;2022-12-18T02:35:58;99896.91;;;-5.96
11926;BMP180;6022;48.768;18.608;2022-12-18T02:38:26;99895.13;;;-6.02
11926;BMP180;6022;48.768;18.608;2022-12-18T02:40:56;99898.47;;;-6.00
11926;BMP180;6022;48.768;18.608;2022-12-18T02:43:23;99892.59;;;-6.04
11926;BMP180;6022;48.768;18.608;2022-12-18T02:45:57;99904.63;;;-6.17
11926;BMP180;6022;48.768;18.608;2022-12-18T02:48:34;99911.81;;;-6.25
11926;BMP180;6022;48.768;18.608;2022-12-18T02:51:24;99915.75;;;-6.31
11926;BMP180;6022;48.768;18.608;2022-12-18T02:54:06;99919.75;;;-6.36
11926;BMP180;6022;48.768;18.608;2022-12-18T02:56:44;99912.22;;;-6.40
11926;BMP180;6022;48.768;18.608;2022-12-18T02:59:47;99910.56;;;-6.41
11926;BMP180;6022;48.768;18.608;2022-12-18T03:02:26;99914.72;;;-6.39
11926;BMP180;6022;48.768;18.608;2022-12-18T03:05:17;99917.28;;;-6.36
11926;BMP180;6022;48.768;18.608;2022-12-18T03:08:18;99917.69;;;-6.21
11926;BMP180;6022;48.768;18.608;2022-12-18T03:11:03;99921.81;;;-6.20
11926;BMP180;6022;48.768;18.608;2022-12-18T03:16:17;99919.00;;;-6.34
11926;BMP180;6022;48.768;18.608;2022-12-18T03:18:52;99926.44;;;-6.32
11926;BMP180;6022;48.768;18.608;2022-12-18T03:21:28;99932.41;;;-6.24
11926;BMP180;6022;48.768;18.608;2022-12-18T03:23:57;99923.97;;;-6.32
11926;BMP180;6022;48.768;18.608;2022-12-18T03:26:27;99932.31;;;-6.29
11926;BMP180;6022;48.768;18.608;2022-12-18T03:29:09;99926.66;;;-6.23
11926;BMP180;6022;48.768;18.608;2022-12-18T03:31:42;99934.19;;;-6.19
11926;BMP180;6022;48.768;18.608;2022-12-18T03:34:19;99939.13;;;-6.19
11926;BMP180;6022;48.768;18.608;2022-12-18T03:36:46;99947.31;;;-6.21
11926;BMP180;6022;48.768;18.608;2022-12-18T03:39:14;99944.13;;;-6.17
11926;BMP180;6022;48.768;18.608;2022-12-18T03:41:48;99933.09;;;-6.30
11926;BMP180;6022;48.768;18.608;2022-12-18T03:44:50;99932.00;;;-6.39
11926;BMP180;6022;48.768;18.608;2022-12-18T03:47:34;99932.09;;;-6.36
11926;BMP180;6022;48.768;18.608;2022-12-18T03:50:36;99934.81;;;-6.26
11926;BMP180;6022;48.768;18.608;2022-12-18T03:55:43;99948.09;;;-6.22
11926;BMP180;6022;48.768;18.608;2022-12-18T03:58:16;99953.91;;;-6.20
11926;BMP180;6022;48.768;18.608;2022-12-18T04:00:45;99958.06;;;-6.18
11926;BMP180;6022;48.768;18.608;2022-12-18T04:03:16;99963.19;;;-6.12
11926;BMP180;6022;48.768;18.608;2022-12-18T04:05:54;99955.59;;;-6.19
11926;BMP180;6022;48.768;18.608;2022-12-18T04:08:23;99955.41;;;-6.25
11926;BMP180;6022;48.768;18.608;2022-12-18T04:10:51;99958.53;;;-6.32
11926;BMP180;6022;48.768;18.608;2022-12-18T04:13:29;99966.56;;;-6.39
11926;BMP180;6022;48.768;18.608;2022-12-18T04:15:56;99967.38;;;-6.40
11926;BMP180;6022;48.768;18.608;2022-12-18T04:18:23;99966.56;;;-6.39
11926;BMP180;6022;48.768;18.608;2022-12-18T04:20:50;99968.25;;;-6.38
11926;BMP180;6022;48.768;18.608;2022-12-18T04:23:18;99968.06;;;-6.44
11926;BMP180;6022;48.768;18.608;2022-12-18T04:25:47;99972.78;;;-6.51
11926;BMP180;6022;48.768;18.608;2022-12-18T04:28:14;99971.75;;;-6.59
11926;BMP180;6022;48.768;18.608;2022-12-18T04:30:41;99979.78;;;-6.66
11926;BMP180;6022;48.768;18.608;2022-12-18T04:33:10;99978.75;;;-6.73
11926;BMP180;6022;48.768;18.608;2022-12-18T04:35:38;99974.44;;;-6.79
11926;BMP180;6022;48.768;18.608;2022-12-18T04:38:07;99970.22;;;-6.83
11926;BMP180;6022;48.768;18.608;2022-12-18T04:40:36;99976.06;;;-6.80
11926;BMP180;6022;48.768;18.608;2022-12-18T04:43:04;99977.00;;;-6.76
11926;BMP180;6022;48.768;18.608;2022-12-18T04:45:32;99982.72;;;-6.77
11926;BMP180;6022;48.768;18.608;2022-12-18T04:48:01;99987.84;;;-6.72
11926;BMP180;6022;48.768;18.608;2022-12-18T04:50:28;99986.22;;;-6.71
11926;BMP180;6022;48.768;18.608;2022-12-18T04:52:56;100000.34;;;-6.66
11926;BMP180;6022;48.768;18.608;2022-12-18T04:55:23;100001.22;;;-6.64
11926;BMP180;6022;48.768;18.608;2022-12-18T04:57:50;100006.88;;;-6.68
11926;BMP180;6022;48.768;18.608;2022-12-18T05:00:18;100001.09;;;-6.68
11926;BMP180;6022;48.768;18.608;2022-12-18T05:02:45;100006.78;;;-6.71
11926;BMP180;6022;48.768;18.608;2022-12-18T05:05:12;100012.69;;;-6.66
11926;BMP180;6022;48.768;18.608;2022-12-18T05:07:39;100011.75;;;-6.69
11926;BMP180;6022;48.768;18.608;2022-12-18T05:10:08;100024.66;;;-6.77
11926;BMP180;6022;48.768;18.608;2022-12-18T05:12:36;100016.31;;;-6.82
11926;BMP180;6022;48.768;18.608;2022-12-18T05:15:26;100022.13;;;-6.80
11926;BMP180;6022;48.768;18.608;2022-12-18T05:17:54;100020.56;;;-6.77
11926;BMP180;6022;48.768;18.608;2022-12-18T05:20:21;100024.59;;;-6.80
11926;BMP180;6022;48.768;18.608;2022-12-18T05:22:48;100026.94;;;-6.85
11926;BMP180;6022;48.768;18.608;2022-12-18T05:25:15;100026.13;;;-6.84
11926;BMP180;6022;48.768;18.608;2022-12-18T05:27:43;100037.78;;;-6.78
11926;BMP180;6022;48.768;18.608;2022-12-18T05:30:11;100036.91;;;-6.80
11926;BMP180;6022;48.768;18.608;2022-12-18T05:32:38;100039.38;;;-6.80
11926;BMP180;6022;48.768;18.608;2022-12-18T05:35:08;100041.78;;;-6.82
11926;BMP180;6022;48.768;18.608;2022-12-18T05:37:35;100045.91;;;-6.82
11926;BMP180;6022;48.768;18.608;2022-12-18T05:40:10;100047.44;;;-6.86
11926;BMP180;6022;48.768;18.608;2022-12-18T05:42:38;100053.13;;;-6.87
11926;BMP180;6022;48.768;18.608;2022-12-18T05:45:05;100050.78;;;-6.84
11926;BMP180;6022;48.768;18.608;2022-12-18T05:47:33;100054.78;;;-6.87
11926;BMP180;6022;48.768;18.608;2022-12-18T05:50:00;100056.34;;;-6.89
11926;BMP180;6022;48.768;18.608;2022-12-18T05:52:28;100048.13;;;-6.90
11926;BMP180;6022;48.768;18.608;2022-12-18T05:54:55;100056.97;;;-6.96
11926;BMP180;6022;48.768;18.608;2022-12-18T05:57:22;100059.09;;;-7.07
11926;BMP180;6022;48.768;18.608;2022-12-18T05:59:49;100060.69;;;-7.09
11926;BMP180;6022;48.768;18.608;2022-12-18T06:02:16;100050.06;;;-7.06
11926;BMP180;6022;48.768;18.608;2022-12-18T06:04:43;100066.63;;;-7.04
11926;BMP180;6022;48.768;18.608;2022-12-18T06:07:10;100078.38;;;-6.95
11926;BMP180;6022;48.768;18.608;2022-12-18T06:09:37;100081.03;;;-6.89
11926;BMP180;6022;48.768;18.608;2022-12-18T06:12:05;100078.38;;;-6.95
11926;BMP180;6022;48.768;18.608;2022-12-18T06:14:32;100085.00;;;-6.94
11926;BMP180;6022;48.768;18.608;2022-12-18T06:16:59;100085.88;;;-6.92
11926;BMP180;6022;48.768;18.608;2022-12-18T06:19:26;100085.53;;;-7.03
11926;BMP180;6022;48.768;18.608;2022-12-18T06:21:53;100084.53;;;-7.09
11926;BMP180;6022;48.768;18.608;2022-12-18T06:24:21;100094.28;;;-7.12
11926;BMP180;6022;48.768;18.608;2022-12-18T06:26:48;100089.03;;;-7.21
11926;BMP180;6022;48.768;18.608;2022-12-18T06:29:16;100102.16;;;-7.22
11926;BMP180;6022;48.768;18.608;2022-12-18T06:31:43;100099.97;;;-7.14
11926;BMP180;6022;48.768;18.608;2022-12-18T06:34:10;100098.22;;;-7.17
11926;BMP180;6022;48.768;18.608;2022-12-18T06:36:38;100103.94;;;-7.18
11926;BMP180;6022;48.768;18.608;2022-12-18T06:39:05;100106.28;;;-7.21
11926;BMP180;6022;48.768;18.608;2022-12-18T06:41:34;100109.06;;;-7.12
11926;BMP180;6022;48.768;18.608;2022-12-18T06:44:02;100118.72;;;-7.18
11926;BMP180;6022;48.768;18.608;2022-12-18T06:46:29;100119.22;;;-7.28
11926;BMP180;6022;48.768;18.608;2022-12-18T06:48:59;100129.75;;;-7.32
11926;BMP180;6022;48.768;18.608;2022-12-18T06:51:29;100125.81;;;-7.27
11926;BMP180;6022;48.768;18.608;2022-12-18T06:53:58;100129.03;;;-7.29
11926;BMP180;6022;48.768;18.608;2022-12-18T06:56:26;100136.00;;;-7.18
11926;BMP180;6022;48.768;18.608;2022-12-18T06:58:56;100140.53;;;-7.05
11926;BMP180;6022;48.768;18.608;2022-12-18T07:01:26;100137.25;;;-7.04
11926;BMP180;6022;48.768;18.608;2022-12-18T07:03:57;100141.50;;;-7.00
11926;BMP180;6022;48.768;18.608;2022-12-18T07:06:26;100137.56;;;-6.95
11926;BMP180;6022;48.768;18.608;2022-12-18T07:08:54;100143.44;;;-6.92
11926;BMP180;6022;48.768;18.608;2022-12-18T07:11:22;100150.78;;;-6.93
11926;BMP180;6022;48.768;18.608;2022-12-18T07:13:49;100152.91;;;-6.79
11926;BMP180;6022;48.768;18.608;2022-12-18T07:16:19;100157.44;;;-6.66
11926;BMP180;6022;48.768;18.608;2022-12-18T07:18:53;100153.97;;;-6.45
11926;BMP180;6022;48.768;18.608;2022-12-18T07:21:23;100160.84;;;-6.35
11926;BMP180;6022;48.768;18.608;2022-12-18T07:23:50;100165.19;;;-6.28
11926;BMP180;6022;48.768;18.608;2022-12-18T07:26:20;100167.19;;;-6.17
11926;BMP180;6022;48.768;18.608;2022-12-18T07:28:48;100170.63;;;-6.12
11926;BMP180;6022;48.768;18.608;2022-12-18T07:31:20;100175.09;;;-5.99
11926;BMP180;6022;48.768;18.608;2022-12-18T07:33:49;100181.16;;;-5.90
11926;BMP180;6022;48.768;18.608;2022-12-18T07:36:17;100190.41;;;-5.83
11926;BMP180;6022;48.768;18.608;2022-12-18T07:38:48;100184.94;;;-5.71
11926;BMP180;6022;48.768;18.608;2022-12-18T07:41:15;100191.91;;;-5.59
11926;BMP180;6022;48.768;18.608;2022-12-18T07:43:43;100192.84;;;-5.55
11926;BMP180;6022;48.768;18.608;2022-12-18T07:46:15;100200.38;;;-5.51
11926;BMP180;6022;48.768;18.608;2022-12-18T07:48:44;100205.63;;;-5.40
11926;BMP180;6022;48.768;18.608;2022-12-18T07:51:16;100206.50;;;-5.38
11926;BMP180;6022;48.768;18.608;2022-12-18T07:53:53;100213.09;;;-5.37
11926;BMP180;6022;48.768;18.608;2022-12-18T07:56:21;100218.91;;;-5.37
11926;BMP180;6022;48.768;18.608;2022-12-18T07:58:58;100214.06;;;-5.32
11926;BMP180;6022;48.768;18.608;2022-12-18T08:01:27;100214.94;;;-5.30
11926;BMP180;6022;48.768;18.608;2022-12-18T08:03:54;100216.69;;;-5.27
11926;BMP180;6022;48.768;18.608;2022-12-18T08:06:21;100221.81;;;-5.21
11926;BMP180;6022;48.768;18.608;2022-12-18T08:08:55;100224.44;;;-5.15
11926;BMP180;6022;48.768;18.608;2022-12-18T08:11:26;100224.56;;;-5.10
11926;BMP180;6022;48.768;18.608;2022-12-18T08:13:54;100227.00;;;-5.12
11926;BMP180;6022;48.768;18.608;2022-12-18T08:16:23;100228.19;;;-4.98
11926;BMP180;6022;48.768;18.608;2022-12-18T08:18:52;100227.63;;;-4.88
11926;BMP180;6022;48.768;18.608;2022-12-18T08:21:26;100228.03;;;-4.73
11926;BMP180;6022;48.768;18.608;2022-12-18T08:23:58;100237.38;;;-4.62
11926;BMP180;6022;48.768;18.608;2022-12-18T08:26:30;100230.38;;;-4.44
11926;BMP180;6022;48.768;18.608;2022-12-18T08:29:01;100228.91;;;-4.36
11926;BMP180;6022;48.768;18.608;2022-12-18T08:31:30;100237.34;;;-4.30
11926;BMP180;6022;48.768;18.608;2022-12-18T08:33:57;100235.81;;;-4.25
11926;BMP180;6022;48.768;18.608;2022-12-18T08:36:25;100243.31;;;-4.22
11926;BMP180;6022;48.768;18.608;2022-12-18T08:38:53;100247.75;;;-4.09
11926;BMP180;6022;48.768;18.608;2022-12-18T08:41:23;100246.34;;;-3.98
11926;BMP180;6022;48.768;18.608;2022-12-18T08:43:51;100239.91;;;-3.90
11926;BMP180;6022;48.768;18.608;2022-12-18T08:46:42;100251.78;;;-3.77
11926;BMP180;6022;48.768;18.608;2022-12-18T08:49:11;100246.06;;;-3.74
11926;BMP180;6022;48.768;18.608;2022-12-18T08:51:39;100250.38;;;-3.65
11926;BMP180;6022;48.768;18.608;2022-12-18T08:54:07;100257.06;;;-3.63
11926;BMP180;6022;48.768;18.608;2022-12-18T08:56:34;100258.13;;;-3.50
11926;BMP180;6022;48.768;18.608;2022-12-18T08:59:02;100240.28;;;-3.35
11926;BMP180;6022;48.768;18.608;2022-12-18T09:01:31;100242.22;;;-3.20
11926;BMP180;6022;48.768;18.608;2022-12-18T09:03:59;100242.38;;;-3.13
11926;BMP180;6022;48.768;18.608;2022-12-18T09:06:26;100239.31;;;-3.00
11926;BMP180;6022;48.768;18.608;2022-12-18T09:08:53;100238.66;;;-2.92
11926;BMP180;6022;48.768;18.608;2022-12-18T09:11:24;100232.19;;;-2.81
11926;BMP180;6022;48.768;18.608;2022-12-18T09:13:53;100236.56;;;-2.68
11926;BMP180;6022;48.768;18.608;2022-12-18T09:16:22;100241.84;;;-2.52
11926;BMP180;6022;48.768;18.608;2022-12-18T09:18:59;100237.19;;;-2.34
11926;BMP180;6022;48.768;18.608;2022-12-18T09:21:32;100232.75;;;-1.98
11926;BMP180;6022;48.768;18.608;2022-12-18T09:24:04;100242.50;;;-1.54
11926;BMP180;6022;48.768;18.608;2022-12-18T09:26:35;100240.41;;;-1.20
11926;BMP180;6022;48.768;18.608;2022-12-18T09:29:03;100231.75;;;-0.78
11926;BMP180;6022;48.768;18.608;2022-12-18T09:31:30;100231.97;;;-0.55
11926;BMP180;6022;48.768;18.608;2022-12-18T09:33:58;100234.47;;;-0.53
11926;BMP180;6022;48.768;18.608;2022-12-18T09:36:28;100229.69;;;-0.33
11926;BMP180;6022;48.768;18.608;2022-12-18T09:38:55;100222.25;;;-0.25
11926;BMP180;6022;48.768;18.608;2022-12-18T09:41:56;100233.25;;;-0.01
11926;BMP180;6022;48.768;18.608;2022-12-18T09:44:32;100225.13;;;0.36
11926;BMP180;6022;48.768;18.608;2022-12-18T09:47:24;100224.47;;;0.65
11926;BMP180;6022;48.768;18.608;2022-12-18T09:49:59;100227.78;;;0.67
11926;BMP180;6022;48.768;18.608;2022-12-18T09:52:36;100226.13;;;0.69
11926;BMP180;6022;48.768;18.608;2022-12-18T09:55:48;100221.22;;;0.95
11926;BMP180;6022;48.768;18.608;2022-12-18T09:58:43;100213.75;;;0.97
11926;BMP180;6022;48.768;18.608;2022-12-18T10:01:18;100216.16;;;0.74
11926;BMP180;6022;48.768;18.608;2022-12-18T10:03:47;100218.69;;;0.80
11926;BMP180;6022;48.768;18.608;2022-12-18T10:07:13;100218.66;;;0.70
11926;BMP180;6022;48.768;18.608;2022-12-18T10:21:25;100214.28;;;0.23
11926;BMP180;6022;48.768;18.608;2022-12-18T10:26:41;100204.38;;;0.41
11926;BMP180;6022;48.768;18.608;2022-12-18T10:29:14;100202.59;;;0.19
11926;BMP180;6022;48.768;18.608;2022-12-18T10:31:42;100204.28;;;0.23
11926;BMP180;6022;48.768;18.608;2022-12-18T10:34:15;100203.56;;;0.45
11926;BMP180;6022;48.768;18.608;2022-12-18T10:36:42;100199.41;;;0.44
11926;BMP180;6022;48.768;18.608;2022-12-18T10:39:23;100196.06;;;0.45
11926;BMP180;6022;48.768;18.608;2022-12-18T10:41:50;100204.50;;;0.66
11926;BMP180;6022;48.768;18.608;2022-12-18T10:44:22;100200.34;;;0.74
11926;BMP180;6022;48.768;18.608;2022-12-18T10:46:55;100196.25;;;0.98
11926;BMP180;6022;48.768;18.608;2022-12-18T10:49:47;100191.28;;;1.04
11926;BMP180;6022;48.768;18.608;2022-12-18T10:52:19;100187.94;;;1.14
11926;BMP180;6022;48.768;18.608;2022-12-18T10:54:58;100181.31;;;1.38
11926;BMP180;6022;48.768;18.608;2022-12-18T10:57:37;100177.16;;;1.22
11926;BMP180;6022;48.768;18.608;2022-12-18T11:00:29;100182.13;;;1.13
11926;BMP180;6022;48.768;18.608;2022-12-18T11:02:57;100183.81;;;1.25
11926;BMP180;6022;48.768;18.608;2022-12-18T11:05:34;100169.66;;;1.48
11926;BMP180;6022;48.768;18.608;2022-12-18T11:08:03;100172.97;;;1.64
11926;BMP180;6022;48.768;18.608;2022-12-18T11:10:37;100153.00;;;1.61
11926;BMP180;6022;48.768;18.608;2022-12-18T11:13:24;100156.31;;;1.63
11926;BMP180;6022;48.768;18.608;2022-12-18T11:15:52;100156.31;;;1.56
11926;BMP180;6022;48.768;18.608;2022-12-18T11:18:33;100166.31;;;1.60
11926;BMP180;6022;48.768;18.608;2022-12-18T11:21:11;100162.97;;;1.76
11926;BMP180;6022;48.768;18.608;2022-12-18T11:24:19;100167.97;;;1.76
11926;BMP180;6022;48.768;18.608;2022-12-18T11:26:48;100167.16;;;1.71
11926;BMP180;6022;48.768;18.608;2022-12-18T11:29:33;100167.97;;;1.49
11926;BMP180;6022;48.768;18.608;2022-12-18T11:32:39;100163.81;;;1.69
11926;BMP180;6022;48.768;18.608;2022-12-18T11:35:15;100162.97;;;1.70
11926;BMP180;6022;48.768;18.608;2022-12-18T11:37:50;100172.97;;;1.58
11926;BMP180;6022;48.768;18.608;2022-12-18T11:40:30;100171.31;;;1.66
11926;BMP180;6022;48.768;18.608;2022-12-18T11:43:27;100167.94;;;1.97
11926;BMP180;6022;48.768;18.608;2022-12-18T11:46:05;100169.53;;;2.26
11926;BMP180;6022;48.768;18.608;2022-12-18T11:48:42;100164.50;;;2.32
11926;BMP180;6022;48.768;18.608;2022-12-18T11:51:26;100166.94;;;2.47
11926;BMP180;6022;48.768;18.608;2022-12-18T11:53:55;100164.38;;;2.63
11926;BMP180;6022;48.768;18.608;2022-12-18T11:56:33;100165.19;;;2.66
11926;BMP180;6022;48.768;18.608;2022-12-18T12:02:09;100169.28;;;2.84
11926;BMP180;6022;48.768;18.608;2022-12-18T12:05:33;100173.38;;;2.98
11926;BMP180;6022;48.768;18.608;2022-12-18T12:17:30;100187.22;;;3.48
11926;BMP180;6022;48.768;18.608;2022-12-18T12:26:12;100190.56;;;3.50
11926;BMP180;6022;48.768;18.608;2022-12-18T12:40:27;100192.25;;;3.49
11926;BMP180;6022;48.768;18.608;2022-12-18T12:43:43;100197.38;;;3.35
11926;BMP180;6022;48.768;18.608;2022-12-18T12:46:19;100197.41;;;3.30
11926;BMP180;6022;48.768;18.608;2022-12-18T12:49:00;100198.47;;;2.95
11926;BMP180;6022;48.768;18.608;2022-12-18T12:51:35;100188.50;;;2.83
11926;BMP180;6022;48.768;18.608;2022-12-18T12:54:18;100190.25;;;2.68
11926;BMP180;6022;48.768;18.608;2022-12-18T13:02:48;100198.69;;;2.43
11926;BMP180;6022;48.768;18.608;2022-12-18T13:05:23;100200.34;;;2.44
11926;BMP180;6022;48.768;18.608;2022-12-18T13:10:55;100202.84;;;2.53
11926;BMP180;6022;48.768;18.608;2022-12-18T13:13:55;100209.53;;;2.39
11926;BMP180;6022;48.768;18.608;2022-12-18T13:16:26;100212.88;;;2.44
11926;BMP180;6022;48.768;18.608;2022-12-18T13:19:00;100215.44;;;2.31
11926;BMP180;6022;48.768;18.608;2022-12-18T13:21:36;100222.13;;;2.13
11926;BMP180;6022;48.768;18.608;2022-12-18T13:24:27;100223.81;;;2.21
11926;BMP180;6022;48.768;18.608;2022-12-18T13:26:59;100225.44;;;2.21
11926;BMP180;6022;48.768;18.608;2022-12-18T13:29:45;100221.31;;;2.14
11926;BMP180;6022;48.768;18.608;2022-12-18T13:32:29;100214.66;;;2.10
11926;BMP180;6022;48.768;18.608;2022-12-18T13:37:54;100211.28;;;2.17
11926;BMP180;6022;48.768;18.608;2022-12-18T13:49:28;100222.09;;;2.27
11926;BMP180;6022;48.768;18.608;2022-12-18T13:51:57;100217.97;;;2.06
11926;BMP180;6022;48.768;18.608;2022-12-18T13:54:47;100223.00;;;1.89
11926;BMP180;6022;48.768;18.608;2022-12-18T13:57:37;100215.50;;;1.79
11926;BMP180;6022;48.768;18.608;2022-12-18T14:00:30;100223.00;;;1.70
11926;BMP180;6022;48.768;18.608;2022-12-18T14:03:20;100220.53;;;1.63
11926;BMP180;6022;48.768;18.608;2022-12-18T14:06:11;100219.69;;;1.50
11926;BMP180;6022;48.768;18.608;2022-12-18T14:08:45;100221.31;;;1.44
11926;BMP180;6022;48.768;18.608;2022-12-18T14:11:25;100226.31;;;1.40
11926;BMP180;6022;48.768;18.608;2022-12-18T14:13:56;100232.97;;;1.29
11926;BMP180;6022;48.768;18.608;2022-12-18T14:16:25;100229.66;;;1.24
11926;BMP180;6022;48.768;18.608;2022-12-18T14:18:55;100232.97;;;1.18
11926;BMP180;6022;48.768;18.608;2022-12-18T14:21:45;100237.91;;;1.07
11926;BMP180;6022;48.768;18.608;2022-12-18T14:24:20;100239.56;;;1.00
11926;BMP180;6022;48.768;18.608;2022-12-18T14:26:49;100241.22;;;0.98
11926;BMP180;6022;48.768;18.608;2022-12-18T14:29:30;100240.41;;;0.92
11926;BMP180;6022;48.768;18.608;2022-12-18T14:32:15;100252.88;;;0.89
11926;BMP180;6022;48.768;18.608;2022-12-18T14:34:54;100255.34;;;0.81
11926;BMP180;6022;48.768;18.608;2022-12-18T14:37:26;100254.47;;;0.74
11926;BMP180;6022;48.768;18.608;2022-12-18T14:39:55;100251.09;;;0.63
11926;BMP180;6022;48.768;18.608;2022-12-18T14:42:25;100251.06;;;0.55
11926;BMP180;6022;48.768;18.608;2022-12-18T14:45:33;100255.13;;;0.43
11926;BMP180;6022;48.768;18.608;2022-12-18T14:48:18;100257.63;;;0.40
11926;BMP180;6022;48.768;18.608;2022-12-18T14:51:15;100264.25;;;0.32
11926;BMP180;6022;48.768;18.608;2022-12-18T14:53:47;100267.44;;;0.15
11926;BMP180;6022;48.768;18.608;2022-12-18T14:56:27;100264.13;;;0.11
11926;BMP180;6022;48.768;18.608;2022-12-18T14:58:59;100274.88;;;0.09
11926;BMP180;6022;48.768;18.608;2022-12-18T15:01:36;100287.28;;;-0.01
11926;BMP180;6022;48.768;18.608;2022-12-18T15:04:35;100289.66;;;-0.16
11926;BMP180;6022;48.768;18.608;2022-12-18T15:09:36;100288.72;;;-0.27
11926;BMP180;6022;48.768;18.608;2022-12-18T15:12:04;100301.97;;;-0.34
11926;BMP180;6022;48.768;18.608;2022-12-18T15:14:41;100301.91;;;-0.40
11926;BMP180;6022;48.768;18.608;2022-12-18T15:17:21;100311.81;;;-0.46
11926;BMP180;6022;48.768;18.608;2022-12-18T15:20:00;100311.72;;;-0.55
11926;BMP180;6022;48.768;18.608;2022-12-18T15:22:36;100314.91;;;-0.68
11926;BMP180;6022;48.768;18.608;2022-12-18T15:25:32;100319.06;;;-0.71
11926;BMP180;6022;48.768;18.608;2022-12-18T15:28:17;100323.09;;;-0.80
11926;BMP180;6022;48.768;18.608;2022-12-18T15:33:42;100336.16;;;-0.99
11926;BMP180;6022;48.768;18.608;2022-12-18T15:36:17;100344.31;;;-1.09
11926;BMP180;6022;48.768;18.608;2022-12-18T15:38:55;100357.19;;;-1.37
11926;BMP180;6022;48.768;18.608;2022-12-18T15:41:35;100357.34;;;-1.28
11926;BMP180;6022;48.768;18.608;2022-12-18T15:44:35;100362.41;;;-1.20
11926;BMP180;6022;48.768;18.608;2022-12-18T15:47:09;100370.72;;;-1.20
11926;BMP180;6022;48.768;18.608;2022-12-18T15:49:37;100363.13;;;-1.27
11926;BMP180;6022;48.768;18.608;2022-12-18T15:52:05;100367.28;;;-1.28
11926;BMP180;6022;48.768;18.608;2022-12-18T15:54:33;100364.72;;;-1.34
11926;BMP180;6022;48.768;18.608;2022-12-18T15:57:19;100367.09;;;-1.41
11926;BMP180;6022;48.768;18.608;2022-12-18T15:59:55;100380.28;;;-1.47
11926;BMP180;6022;48.768;18.608;2022-12-18T16:02:32;100381.03;;;-1.52
11926;BMP180;6022;48.768;18.608;2022-12-18T16:05:03;100388.44;;;-1.56
11926;BMP180;6022;48.768;18.608;2022-12-18T16:07:31;100388.38;;;-1.59
11926;BMP180;6022;48.768;18.608;2022-12-18T16:09:58;100388.25;;;-1.68
11926;BMP180;6022;48.768;18.608;2022-12-18T16:12:28;100384.06;;;-1.71
11926;BMP180;6022;48.768;18.608;2022-12-18T16:14:55;100393.88;;;-1.80